Terminal Aerodrome Forecast
Issued by NWS

Home | Current Version | Previous Version | Graphics & Text | Print | Product List | Glossary On
Versions: 1 2 3 4 5 6 7 8 9 10 11 12 13 14 15
000
FTUS43 KICT 131100
TAFSLN
TAF
KSLN 131135Z 1312/1412 09012KT P6SM SCT030 BKN120
     FM131600 01016KT P6SM SCT030 BKN050
     FM131800 35026G35KT 5SM -RA BR SCT012 OVC025
     FM140500 36022G30KT 4SM -RASN BR OVC012
     FM140900 36020G30KT 4SM -SN BR OVC012=

USA.gov is the U.S. government's official web portal to all federal, state and local government web resources and services.